Time;durP1;ratioP1;P1;durP2;ratioP2;P2;SDS_P1;SDS_P2;PMS_P1;PMS_P2;Temp;Humidity;BMP_temperature;BMP_pressure;BME280_temperature;BME280_humidity;BME280_pressure;Samples;Min_cycle;Max_cycle;Signal;HPM_P1;HPM_P2
2023/04/23 00:00:18;;;;;;;6.20;2.97;;;;;;;12.28;100.00;95218.66;1026110;28;20031;-76
2023/04/23 00:00:48;;;;;;;4.68;3.20;;;;;;;12.34;100.00;95229.88;1025369;28;20486;-77
2023/04/23 00:01:19;;;;;;;6.55;3.22;;;;;;;12.22;100.00;95212.69;1026179;28;20333;-79
2023/04/23 00:01:49;;;;;;;5.53;3.00;;;;;;;12.37;100.00;95232.72;1027371;28;20023;-77
2023/04/23 00:02:21;;;;;;;6.00;3.13;;;;;;;12.36;100.00;95230.38;1024919;28;20026;-78
2023/04/23 00:02:52;;;;;;;4.30;3.00;;;;;;;12.26;100.00;95220.78;1022788;28;20034;-76
2023/04/23 00:03:22;;;;;;;3.85;3.10;;;;;;;12.37;100.00;95231.94;1016772;29;20007;-76
2023/04/23 00:03:56;;;;;;;5.80;3.15;;;;;;;12.32;100.00;95230.16;1022265;29;20733;-77
2023/04/23 00:04:27;;;;;;;4.25;3.33;;;;;;;12.35;100.00;95234.88;1024162;28;20638;-76
2023/04/23 00:05:05;;;;;;;4.07;2.92;;;;;;;12.33;100.00;95223.84;1030179;28;20026;-77
2023/04/23 00:05:36;;;;;;;4.45;2.95;;;;;;;12.36;100.00;95230.38;1034458;28;20101;-77
2023/04/23 00:06:09;;;;;;;4.50;3.28;;;;;;;12.27;100.00;95219.72;1024423;28;20266;-78
2023/04/23 00:06:39;;;;;;;6.38;3.15;;;;;;;12.33;100.00;95230.94;1025231;28;20019;-79
2023/04/23 00:07:10;;;;;;;5.00;3.13;;;;;;;12.30;100.00;95223.63;1018442;29;20276;-77
2023/04/23 00:07:40;;;;;;;8.85;3.60;;;;;;;12.29;100.00;95214.94;1023524;28;20378;-77
2023/04/23 00:08:11;;;;;;;7.03;2.97;;;;;;;12.32;100.00;95230.16;1033440;28;20062;-77
2023/04/23 00:08:42;;;;;;;7.30;3.20;;;;;;;12.36;100.00;95230.38;1026258;28;20014;-76
2023/04/23 00:09:13;;;;;;;4.57;3.40;;;;;;;12.31;100.00;95217.28;1027573;28;20349;-77
2023/04/23 00:09:43;;;;;;;5.70;3.00;;;;;;;12.31;100.00;95223.34;1030139;28;20014;-78
2023/04/23 00:10:14;;;;;;;4.75;3.10;;;;;;;12.28;100.00;95218.66;1027343;28;20395;-77
2023/04/23 00:10:44;;;;;;;4.15;2.70;;;;;;;12.37;100.00;95221.41;1026023;28;20042;-77
2023/04/23 00:11:15;;;;;;;5.72;3.42;;;;;;;12.33;100.00;95218.56;1026478;28;20590;-77
2023/04/23 00:11:46;;;;;;;5.93;3.42;;;;;;;12.29;100.00;95208.91;1029038;28;20026;-78
2023/04/23 00:12:17;;;;;;;3.00;2.67;;;;;;;12.36;100.00;95223.25;1029487;28;20014;-76
2023/04/23 00:12:48;;;;;;;3.63;2.53;;;;;;;12.27;100.00;95207.34;1036337;28;20117;-77
2023/04/23 00:13:18;;;;;;;4.15;2.80;;;;;;;12.32;100.00;95213.59;1030831;28;20022;-77
2023/04/23 00:13:49;;;;;;;4.10;2.90;;;;;;;12.36;100.00;95220.63;1026253;28;20709;-76
2023/04/23 00:14:20;;;;;;;9.07;3.15;;;;;;;12.32;100.00;95208.34;1026513;28;20018;-78
2023/04/23 00:14:51;;;;;;;3.70;2.70;;;;;;;12.32;100.00;95209.13;1027018;28;20512;-76
2023/04/23 00:15:21;;;;;;;9.52;3.70;;;;;;;12.36;100.00;95214.59;1026730;28;20023;-77
2023/04/23 00:15:52;;;;;;;5.50;3.33;;;;;;;12.37;100.00;95209.03;1026491;28;20614;-75
2023/04/23 00:16:23;;;;;;;6.70;3.10;;;;;;;12.38;100.00;95213.25;1018198;29;20075;-78
2023/04/23 00:16:54;;;;;;;5.15;2.80;;;;;;;12.37;100.00;95216.16;1022292;29;20015;-76
2023/04/23 00:17:24;;;;;;;4.00;2.72;;;;;;;12.40;100.00;95220.84;1025957;28;20600;-77
2023/04/23 00:17:55;;;;;;;6.47;3.10;;;;;;;12.37;100.00;95219.56;1022921;28;20027;-77
2023/04/23 00:18:25;;;;;;;3.67;3.03;;;;;;;12.31;100.00;95207.56;1022160;29;20099;-75
2023/04/23 00:18:56;;;;;;;3.85;2.88;;;;;;;12.37;100.00;95216.91;1026585;28;20090;-77
2023/04/23 00:19:26;;;;;;;3.85;2.80;;;;;;;12.39;100.00;95217.44;1030558;28;20493;-78
2023/04/23 00:19:57;;;;;;;4.00;2.83;;;;;;;12.33;100.00;95208.03;1026357;28;20042;-78
2023/04/23 00:20:27;;;;;;;3.00;2.67;;;;;;;12.34;100.00;95208.81;1027676;28;20038;-77
2023/04/23 00:20:58;;;;;;;5.50;3.35;;;;;;;12.35;100.00;95207.78;1027004;28;20034;-76
2023/04/23 00:21:28;;;;;;;4.13;2.45;;;;;;;12.32;100.00;95206.50;1031606;28;20167;-78
2023/04/23 00:21:59;;;;;;;5.25;2.90;;;;;;;12.29;100.00;95201.81;1030252;28;20429;-77
2023/04/23 00:22:29;;;;;;;3.58;2.78;;;;;;;12.41;100.00;95212.69;1032091;28;20041;-78
2023/04/23 00:23:00;;;;;;;4.82;2.78;;;;;;;12.37;100.00;95211.66;1021943;29;20102;-77
2023/04/23 00:23:30;;;;;;;4.00;2.70;;;;;;;12.25;100.00;95187.66;1022407;29;20035;-78
2023/04/23 00:24:01;;;;;;;4.90;3.20;;;;;;;12.38;100.00;95218.50;1022772;28;20023;-78
2023/04/23 00:24:34;;;;;;;5.72;2.97;;;;;;;12.36;100.00;95209.34;1026255;28;20560;-78
2023/04/23 00:25:05;;;;;;;3.47;2.65;;;;;;;12.34;100.00;95212.25;1026637;28;20038;-78
2023/04/23 00:25:36;;;;;;;3.92;2.80;;;;;;;12.37;100.00;95211.66;1026894;28;20030;-77
2023/04/23 00:26:06;;;;;;;3.90;2.70;;;;;;;12.38;100.00;95210.63;1022847;28;20050;-77
2023/04/23 00:26:37;;;;;;;4.13;2.80;;;;;;;12.37;100.00;95216.16;1024921;28;20441;-76
2023/04/23 00:27:07;;;;;;;5.68;2.90;;;;;;;12.37;100.00;95211.66;1030218;28;20057;-78
2023/04/23 00:27:38;;;;;;;5.60;2.42;;;;;;;12.31;100.00;95202.31;1026339;28;20878;-78
2023/04/23 00:28:08;;;;;;;4.00;2.80;;;;;;;12.35;100.00;95203.28;1025754;28;20027;-78
2023/04/23 00:28:39;;;;;;;3.58;2.50;;;;;;;12.32;100.00;95206.50;1022343;29;20130;-78
2023/04/23 00:29:09;;;;;;;6.03;2.70;;;;;;;12.32;100.00;95203.09;1022173;28;20035;-74
2023/04/23 00:29:40;;;;;;;3.08;2.72;;;;;;;12.24;100.00;95192.16;1019458;28;20035;-78
2023/04/23 00:30:10;;;;;;;5.63;2.63;;;;;;;12.40;100.00;95215.56;1022064;28;20448;-78
2023/04/23 00:30:41;;;;;;;5.32;3.13;;;;;;;12.38;100.00;95215.88;1022210;28;20031;-77
2023/04/23 00:31:11;;;;;;;4.43;2.70;;;;;;;12.36;100.00;95204.06;1026070;28;20031;-78
2023/04/23 00:31:42;;;;;;;2.90;2.60;;;;;;;12.38;100.00;95205.34;1027068;28;20076;-78
2023/04/23 00:32:13;;;;;;;3.90;2.50;;;;;;;12.31;100.00;95202.31;1029261;28;20512;-77
2023/04/23 00:32:44;;;;;;;4.13;3.05;;;;;;;12.37;100.00;95205.63;1032562;28;20026;-77
2023/04/23 00:33:14;;;;;;;3.35;2.92;;;;;;;12.37;100.00;95206.41;1032269;28;20300;-76
2023/04/23 00:33:45;;;;;;;6.20;3.10;;;;;;;12.36;100.00;95212.75;1022454;28;20038;-77
2023/04/23 00:34:15;;;;;;;4.38;2.75;;;;;;;12.29;100.00;95193.91;1018762;28;20036;-77
2023/04/23 00:34:48;;;;;;;6.30;3.00;;;;;;;12.29;100.00;95198.41;1026101;28;20508;-78
2023/04/23 00:35:19;;;;;;;4.47;2.80;;;;;;;12.33;100.00;95205.41;1025208;28;20035;-78
2023/04/23 00:35:50;;;;;;;5.10;3.20;;;;;;;12.33;100.00;95209.91;1030736;28;20028;-77
2023/04/23 00:36:20;;;;;;;3.45;2.78;;;;;;;12.27;100.00;95198.66;1034335;28;20459;-76
2023/04/23 00:36:50;;;;;;;3.30;2.70;;;;;;;12.20;100.00;95185.09;1026238;28;20034;-77
2023/04/23 00:37:21;;;;;;;5.85;3.10;;;;;;;12.29;100.00;95193.91;1026993;28;20042;-77
2023/04/23 00:37:52;;;;;;;4.13;2.83;;;;;;;12.32;100.00;95203.84;1028756;28;20424;-77
2023/04/23 00:38:22;;;;;;;4.53;3.28;;;;;;;12.35;100.00;95210.41;1027237;28;20125;-77
2023/04/23 00:38:53;;;;;;;4.68;3.05;;;;;;;12.34;100.00;95206.19;1026789;28;20022;-77
2023/04/23 00:39:23;;;;;;;4.47;2.80;;;;;;;12.33;100.00;95210.69;1027104;28;20034;-78
2023/04/23 00:39:54;;;;;;;10.80;2.90;;;;;;;12.27;100.00;95204.72;1030503;28;20077;-78
2023/04/23 00:40:24;;;;;;;3.67;2.80;;;;;;;12.17;100.00;95189.09;1026762;28;20079;-76
2023/04/23 00:40:55;;;;;;;3.55;2.60;;;;;;;12.29;100.00;95207.06;1026218;28;20468;-77
2023/04/23 00:41:27;;;;;;;3.95;3.03;;;;;;;12.33;100.00;95209.91;1026268;28;20019;-78
2023/04/23 00:41:59;;;;;;;4.25;3.17;;;;;;;12.32;100.00;95214.38;1027809;28;20026;-78
2023/04/23 00:42:29;;;;;;;5.32;2.67;;;;;;;12.33;100.00;95210.69;1030447;28;20628;-78
2023/04/23 00:43:00;;;;;;;4.47;2.38;;;;;;;12.29;100.00;95199.16;1018466;29;20023;-77
2023/04/23 00:43:30;;;;;;;3.63;2.55;;;;;;;12.25;100.00;95192.91;1026213;28;20026;-78
2023/04/23 00:44:02;;;;;;;4.70;3.20;;;;;;;12.35;100.00;95213.81;1022245;29;20729;-76
2023/04/23 00:44:32;;;;;;;3.83;2.50;;;;;;;12.32;100.00;95203.84;1018584;29;20659;-77
2023/04/23 00:45:03;;;;;;;3.28;2.60;;;;;;;12.38;100.00;95213.25;1026169;28;20023;-76
2023/04/23 00:45:33;;;;;;;3.55;2.67;;;;;;;12.39;100.00;95206.91;1027230;28;20065;-77
2023/04/23 00:46:04;;;;;;;3.97;2.97;;;;;;;12.40;100.00;95192.66;1026620;28;20027;-77
2023/04/23 00:46:35;;;;;;;4.90;2.63;;;;;;;12.35;100.00;95200.66;1026251;28;20031;-76
2023/04/23 00:47:06;;;;;;;5.05;2.90;;;;;;;12.33;100.00;95189.63;1022433;28;20110;-77
2023/04/23 00:47:37;;;;;;;8.43;3.10;;;;;;;12.33;100.00;95183.59;1022321;29;20031;-78
2023/04/23 00:48:07;;;;;;;4.00;2.63;;;;;;;12.42;100.00;95203.72;1018323;29;20038;-77
2023/04/23 00:48:38;;;;;;;3.40;2.70;;;;;;;12.41;100.00;95201.38;1026228;28;20066;-76
2023/04/23 00:49:08;;;;;;;5.97;2.60;;;;;;;12.39;100.00;95198.22;1026118;28;20469;-77
2023/04/23 00:49:39;;;;;;;6.90;3.05;;;;;;;12.33;100.00;95196.75;1022470;29;20027;-77
2023/04/23 00:50:10;;;;;;;4.43;3.03;;;;;;;12.39;100.00;95201.66;1018194;29;20106;-76
2023/04/23 00:50:41;;;;;;;5.65;3.17;;;;;;;12.38;100.00;95201.94;1019965;28;20031;-78
2023/04/23 00:51:11;;;;;;;4.10;2.53;;;;;;;12.39;100.00;95198.22;1026489;28;20468;-77
2023/04/23 00:51:42;;;;;;;5.63;3.33;;;;;;;12.23;100.00;95179.25;1023055;28;20561;-77
2023/04/23 00:52:12;;;;;;;3.67;2.60;;;;;;;12.38;100.00;95197.47;1021962;29;20027;-76
2023/04/23 00:52:43;;;;;;;4.13;2.75;;;;;;;12.35;100.00;95184.88;1014458;29;20051;-78
2023/04/23 00:53:13;;;;;;;5.68;3.30;;;;;;;12.40;100.00;95200.56;1022245;29;20054;-78
2023/04/23 00:53:44;;;;;;;5.65;3.08;;;;;;;12.40;100.00;95199.78;1019853;29;20031;-77
2023/04/23 00:54:14;;;;;;;7.60;2.70;;;;;;;12.39;100.00;95199.00;1026043;28;20039;-77
2023/04/23 00:54:45;;;;;;;5.18;2.85;;;;;;;12.37;100.00;95195.88;1022325;29;20142;-78
2023/04/23 00:55:15;;;;;;;4.80;2.95;;;;;;;12.32;100.00;95198.59;1018340;29;20079;-77
2023/04/23 00:55:46;;;;;;;5.53;2.80;;;;;;;12.38;100.00;95204.56;1020079;29;20023;-77
2023/04/23 00:56:16;;;;;;;3.78;2.65;;;;;;;12.38;100.00;95207.22;1022241;28;20027;-78
2023/04/23 00:56:47;;;;;;;3.00;2.55;;;;;;;12.33;100.00;95205.41;1026317;28;20028;-77
2023/04/23 00:57:18;;;;;;;4.00;2.97;;;;;;;12.27;100.00;95201.28;1022161;28;20091;-77
2023/04/23 00:57:48;;;;;;;4.65;3.00;;;;;;;12.31;100.00;95201.50;1022088;29;20458;-76
2023/04/23 00:58:19;;;;;;;3.45;2.60;;;;;;;12.32;100.00;95201.22;1025942;28;20019;-76
2023/04/23 00:58:50;;;;;;;4.75;3.28;;;;;;;12.33;100.00;95210.69;1022703;28;20030;-77
2023/04/23 00:59:21;;;;;;;4.65;2.70;;;;;;;12.33;100.00;95204.63;1024634;28;20110;-77
2023/04/23 00:59:51;;;;;;;3.78;2.90;;;;;;;12.33;100.00;95208.03;1028304;28;20033;-78
2023/04/23 01:00:22;;;;;;;3.08;2.65;;;;;;;12.24;100.00;95196.63;1027428;28;20063;-76
2023/04/23 01:00:52;;;;;;;5.55;3.17;;;;;;;12.32;100.00;95209.13;1029025;28;20018;-77
2023/04/23 01:01:23;;;;;;;4.72;3.00;;;;;;;12.32;100.00;95209.13;1025476;28;20036;-78
2023/04/23 01:01:53;;;;;;;3.10;2.45;;;;;;;12.33;100.00;95207.28;1030376;28;20026;-75
2023/04/23 01:02:25;;;;;;;5.72;2.90;;;;;;;12.32;100.00;95209.13;1025077;28;20114;-75
2023/04/23 01:02:56;;;;;;;3.22;2.53;;;;;;;12.26;100.00;95200.50;1017627;29;20409;-77
2023/04/23 01:03:28;;;;;;;4.40;3.00;;;;;;;12.31;100.00;95204.13;1020066;28;20047;-77
2023/04/23 01:03:59;;;;;;;2.80;2.53;;;;;;;12.32;100.00;95213.59;1022796;28;20785;-76
2023/04/23 01:04:29;;;;;;;5.03;2.55;;;;;;;12.25;100.00;95191.06;1027649;28;20093;-77
2023/04/23 01:05:00;;;;;;;3.83;2.58;;;;;;;12.35;100.00;95205.94;1022225;28;20020;-76
2023/04/23 01:05:30;;;;;;;5.78;2.78;;;;;;;12.26;100.00;95189.22;1018305;29;20019;-75
2023/04/23 01:06:01;;;;;;;11.82;2.90;;;;;;;12.31;100.00;95207.56;1022922;28;20062;-77
2023/04/23 01:06:32;;;;;;;5.03;2.97;;;;;;;12.33;100.00;95202.00;1022194;29;20038;-75
2023/04/23 01:07:02;;;;;;;3.30;2.28;;;;;;;12.26;100.00;95202.38;1021203;28;20541;-77
2023/04/23 01:07:33;;;;;;;5.50;2.70;;;;;;;12.27;100.00;95198.66;1022137;28;20050;-79
2023/04/23 01:08:03;;;;;;;3.10;2.75;;;;;;;12.24;100.00;95197.41;1018530;29;20075;-76
2023/04/23 01:08:35;;;;;;;3.90;2.80;;;;;;;12.32;100.00;95203.84;1026745;28;20054;-78
2023/04/23 01:09:06;;;;;;;5.05;2.92;;;;;;;12.32;100.00;95206.50;1027016;28;20026;-79
2023/04/23 01:09:37;;;;;;;3.55;2.55;;;;;;;12.32;100.00;95206.50;1021579;29;20024;-78
2023/04/23 01:10:07;;;;;;;5.35;2.75;;;;;;;12.16;100.00;95184.09;1019513;29;20019;-78
2023/04/23 01:10:38;;;;;;;5.32;3.05;;;;;;;12.24;100.00;95201.88;1022050;28;20015;-76
2023/04/23 01:11:08;;;;;;;3.17;2.67;;;;;;;12.25;100.00;95196.34;1029716;28;20049;-76
2023/04/23 01:11:40;;;;;;;3.03;2.35;;;;;;;12.28;100.00;95200.25;1028988;28;20058;-77
2023/04/23 01:12:11;;;;;;;5.10;2.47;;;;;;;12.27;100.00;95201.28;1034947;28;20022;-76
2023/04/23 01:12:41;;;;;;;5.40;2.80;;;;;;;12.29;100.00;95204.44;1027477;28;20045;-78
2023/04/23 01:13:12;;;;;;;5.00;2.95;;;;;;;12.25;100.00;95192.91;1023072;28;20669;-77
2023/04/23 01:13:42;;;;;;;5.13;2.70;;;;;;;12.25;100.00;95190.28;1019172;29;20016;-76
2023/04/23 01:14:13;;;;;;;5.90;2.53;;;;;;;12.33;100.00;95204.63;1019230;28;20528;-77
2023/04/23 01:14:43;;;;;;;4.75;2.42;;;;;;;12.33;100.00;95207.28;1025193;28;20050;-77
2023/04/23 01:15:14;;;;;;;3.67;2.97;;;;;;;12.31;100.00;95210.19;1030972;28;20057;-76
2023/04/23 01:15:44;;;;;;;5.75;2.60;;;;;;;12.23;100.00;95195.03;1030876;28;20095;-75
2023/04/23 01:16:15;;;;;;;3.00;2.40;;;;;;;12.23;100.00;95195.03;1022864;28;20026;-76
2023/04/23 01:16:46;;;;;;;4.88;2.88;;;;;;;12.16;100.00;95186.75;1019054;29;20569;-76
2023/04/23 01:17:16;;;;;;;6.72;3.08;;;;;;;12.26;100.00;95200.50;1026842;28;20022;-78
2023/04/23 01:17:47;;;;;;;4.28;2.40;;;;;;;12.15;100.00;95185.19;1026900;28;20050;-77
2023/04/23 01:18:20;;;;;;;3.83;2.75;;;;;;;12.23;100.00;95200.31;1030724;28;20544;-76
2023/04/23 01:18:52;;;;;;;5.15;3.40;;;;;;;12.30;100.00;95213.09;1019320;29;20035;-77
2023/04/23 01:19:23;;;;;;;3.53;2.88;;;;;;;12.30;100.00;95211.25;1020253;28;20031;-78
2023/04/23 01:19:53;;;;;;;4.82;2.78;;;;;;;12.29;100.00;95211.53;1025971;28;20031;-77
2023/04/23 01:20:24;;;;;;;3.70;2.70;;;;;;;12.29;100.00;95214.94;1023964;28;20359;-78
2023/04/23 01:20:54;;;;;;;4.80;2.70;;;;;;;12.25;100.00;95203.44;1023029;28;20466;-75
2023/04/23 01:21:25;;;;;;;3.10;2.70;;;;;;;12.23;100.00;95205.56;1030523;28;20037;-75
2023/04/23 01:21:58;;;;;;;3.40;2.80;;;;;;;12.15;100.00;95203.59;1023061;28;20078;-78
2023/04/23 01:22:29;;;;;;;5.35;2.85;;;;;;;12.20;100.00;95208.75;1023313;28;20039;-76
2023/04/23 01:23:01;;;;;;;4.18;2.83;;;;;;;12.24;100.00;95209.78;1026307;28;20473;-75
2023/04/23 01:23:31;;;;;;;4.30;2.28;;;;;;;12.15;100.00;95206.22;1028696;28;20030;-76
2023/04/23 01:24:03;;;;;;;3.28;2.85;;;;;;;12.15;100.00;95203.59;1023469;28;20110;-76
2023/04/23 01:24:33;;;;;;;6.68;2.65;;;;;;;12.21;100.00;95205.09;1025236;28;20661;-77
2023/04/23 01:25:04;;;;;;;4.50;2.75;;;;;;;12.24;100.00;95212.41;1019733;28;20019;-77
2023/04/23 01:25:35;;;;;;;6.28;2.70;;;;;;;12.24;100.00;95212.41;1021256;29;20058;-77
2023/04/23 01:26:06;;;;;;;3.50;2.85;;;;;;;12.25;100.00;95208.72;1019241;29;20279;-76
2023/04/23 01:26:37;;;;;;;6.50;3.20;;;;;;;12.23;100.00;95208.97;1024660;28;20030;-77
2023/04/23 01:27:08;;;;;;;3.10;2.70;;;;;;;12.24;100.00;95207.16;1031021;28;20022;-77
2023/04/23 01:27:39;;;;;;;5.03;2.53;;;;;;;12.22;100.00;95211.91;1027574;28;20277;-77
2023/04/23 01:28:09;;;;;;;3.08;2.28;;;;;;;12.16;100.00;95202.53;1024024;28;20344;-75
2023/04/23 01:28:41;;;;;;;4.13;2.60;;;;;;;12.21;100.00;95220.88;1035016;28;20033;-76
2023/04/23 01:29:12;;;;;;;5.40;2.63;;;;;;;12.19;100.00;95215.09;1035138;28;20030;-76
2023/04/23 01:29:42;;;;;;;4.97;3.00;;;;;;;12.11;100.00;95206.00;1026324;28;20609;-76
2023/04/23 01:30:13;;;;;;;5.32;2.83;;;;;;;12.12;100.00;95207.56;1022855;28;20022;-76
2023/04/23 01:30:43;;;;;;;3.58;2.72;;;;;;;12.15;100.00;95208.84;1024266;28;20023;-76
2023/04/23 01:31:14;;;;;;;3.65;2.75;;;;;;;12.16;100.00;95215.66;1026760;28;20045;-78
2023/04/23 01:31:45;;;;;;;3.58;2.60;;;;;;;12.07;100.00;95197.09;1027696;28;20026;-77
2023/04/23 01:32:16;;;;;;;3.40;2.58;;;;;;;12.07;100.00;95202.38;1026978;28;20035;-77
2023/04/23 01:32:46;;;;;;;3.90;2.50;;;;;;;12.07;100.00;95201.59;1038993;28;20017;-76
2023/04/23 01:33:18;;;;;;;6.70;2.80;;;;;;;12.08;100.00;95203.19;1035587;28;20037;-78
2023/04/23 01:33:50;;;;;;;5.40;2.72;;;;;;;12.14;100.00;95207.28;1032397;28;20567;-77
2023/04/23 01:34:21;;;;;;;3.10;2.50;;;;;;;12.13;100.00;95210.97;1026859;28;20804;-76
2023/04/23 01:34:53;;;;;;;3.92;2.58;;;;;;;12.11;100.00;95203.38;1022773;29;20027;-76
2023/04/23 01:35:23;;;;;;;4.43;2.80;;;;;;;12.12;100.00;95209.41;1026978;28;20030;-75
2023/04/23 01:35:54;;;;;;;4.03;3.00;;;;;;;12.12;100.00;95215.47;1027457;28;20038;-75
2023/04/23 01:36:25;;;;;;;5.68;2.90;;;;;;;12.10;100.00;95217.56;1031176;28;20026;-76
2023/04/23 01:36:57;;;;;;;4.80;2.40;;;;;;;12.03;100.00;95202.16;1031349;28;20030;-76
2023/04/23 01:37:27;;;;;;;3.80;2.70;;;;;;;12.10;100.00;95211.53;1024297;28;20035;-76
2023/04/23 01:37:58;;;;;;;3.55;2.53;;;;;;;12.05;100.00;95199.25;1030605;28;20034;-77
2023/04/23 01:38:29;;;;;;;5.32;2.65;;;;;;;12.03;100.00;95207.41;1031032;28;20054;-75
2023/04/23 01:39:00;;;;;;;6.60;3.00;;;;;;;12.08;100.00;95213.69;1026731;28;20069;-76
2023/04/23 01:39:30;;;;;;;7.80;2.92;;;;;;;12.07;100.00;95206.84;1024947;28;20277;-79
2023/04/23 01:40:01;;;;;;;4.60;2.78;;;;;;;11.97;100.00;95200.69;1029512;28;20132;-76
2023/04/23 01:40:31;;;;;;;2.83;2.38;;;;;;;12.00;100.00;95210.63;1035078;28;20022;-78
2023/04/23 01:41:02;;;;;;;4.47;3.03;;;;;;;11.94;100.00;95197.84;1030787;28;20057;-76
2023/04/23 01:41:32;;;;;;;5.18;2.92;;;;;;;11.97;100.00;95197.25;1023006;28;20410;-76
2023/04/23 01:42:05;;;;;;;4.00;2.53;;;;;;;11.87;100.00;95189.50;1022790;29;20137;-76
2023/04/23 01:42:36;;;;;;;5.68;2.72;;;;;;;11.91;100.00;95198.41;1025627;28;20076;-76
2023/04/23 01:43:07;;;;;;;3.17;2.53;;;;;;;12.02;100.00;95208.50;1024785;28;20527;-75
2023/04/23 01:43:37;;;;;;;3.78;2.35;;;;;;;11.95;100.00;95199.41;1023389;28;20031;-78
2023/04/23 01:44:08;;;;;;;3.13;2.55;;;;;;;12.01;100.00;95209.56;1023178;28;20015;-78
2023/04/23 01:44:38;;;;;;;4.38;2.60;;;;;;;12.03;100.00;95214.53;1028067;28;20058;-76
2023/04/23 01:45:09;;;;;;;3.90;2.90;;;;;;;11.94;100.00;95193.38;1034913;28;20835;-78
2023/04/23 01:45:40;;;;;;;2.88;2.55;;;;;;;12.02;100.00;95211.13;1034144;28;20033;-77
2023/04/23 01:46:11;;;;;;;4.38;2.55;;;;;;;11.88;100.00;95185.84;1038910;28;20067;-78
2023/04/23 01:46:41;;;;;;;7.40;2.50;;;;;;;11.95;100.00;95204.66;1030571;28;20046;-75
2023/04/23 01:47:12;;;;;;;6.25;2.60;;;;;;;11.90;100.00;95200.22;1030962;28;20026;-77
2023/04/23 01:47:42;;;;;;;3.35;2.45;;;;;;;11.96;100.00;95209.63;1038842;28;20048;-78
2023/04/23 01:48:13;;;;;;;5.60;3.33;;;;;;;11.97;100.00;95213.03;1034402;28;20080;-77
2023/04/23 01:48:44;;;;;;;3.63;2.97;;;;;;;11.95;100.00;95208.06;1033152;28;20089;-76
2023/04/23 01:49:14;;;;;;;3.72;2.58;;;;;;;11.82;100.00;95185.09;1026670;28;20031;-75
2023/04/23 01:49:44;;;;;;;7.50;2.90;;;;;;;11.94;100.00;95203.88;1030572;28;20029;-78
2023/04/23 01:50:15;;;;;;;5.45;3.38;;;;;;;11.93;100.00;95207.56;1031575;28;20489;-76
2023/04/23 01:50:45;;;;;;;5.60;2.83;;;;;;;11.84;100.00;95198.75;1034762;28;20510;-75
2023/04/23 01:51:16;;;;;;;4.57;3.00;;;;;;;11.91;100.00;95208.94;1026845;28;20046;-75
2023/04/23 01:51:47;;;;;;;4.38;3.05;;;;;;;11.86;100.00;95195.84;1034199;28;20030;-77
2023/04/23 01:52:18;;;;;;;2.85;2.40;;;;;;;11.90;100.00;95208.13;1034455;28;20018;-79
2023/04/23 01:52:48;;;;;;;2.95;2.53;;;;;;;11.87;100.00;95205.28;1031125;28;20658;-77
2023/04/23 01:53:19;;;;;;;5.30;2.70;;;;;;;11.85;100.00;95199.53;1025054;28;20119;-78
2023/04/23 01:53:50;;;;;;;3.03;2.63;;;;;;;11.89;100.00;95208.41;1026920;28;20023;-77
2023/04/23 01:54:20;;;;;;;3.67;2.55;;;;;;;11.86;100.00;95211.59;1026945;28;20108;-77
2023/04/23 01:54:51;;;;;;;4.32;2.92;;;;;;;11.80;100.00;95205.59;1030417;28;20103;-77
2023/04/23 01:55:22;;;;;;;3.45;2.72;;;;;;;11.77;100.00;95199.09;1028154;28;20089;-76
2023/04/23 01:55:54;;;;;;;8.05;3.15;;;;;;;11.82;100.00;95206.09;1030994;28;20698;-77
2023/04/23 01:56:26;;;;;;;4.53;2.55;;;;;;;11.83;100.00;95202.41;1022855;29;20090;-77
2023/04/23 01:56:57;;;;;;;4.28;3.03;;;;;;;11.70;100.00;95196.03;1023003;29;20601;-77
2023/04/23 01:57:28;;;;;;;4.68;2.80;;;;;;;11.75;100.00;95200.41;1023674;28;20110;-77
2023/04/23 01:57:58;;;;;;;4.15;2.60;;;;;;;11.82;100.00;95210.59;1026796;28;20648;-76
2023/04/23 01:58:29;;;;;;;6.22;2.80;;;;;;;11.74;100.00;95204.13;1026881;28;20065;-78
2023/04/23 01:58:59;;;;;;;4.82;3.17;;;;;;;11.74;100.00;95201.50;1022972;29;20038;-77
2023/04/23 01:59:30;;;;;;;3.35;2.50;;;;;;;11.76;100.00;95207.22;1022202;28;20092;-76
2023/04/23 02:00:07;;;;;;;2.60;2.22;;;;;;;11.75;100.00;95210.94;1023032;28;20031;-76
2023/04/23 02:00:37;;;;;;;3.80;2.38;;;;;;;11.79;100.00;95214.56;1030919;28;20105;-77
2023/04/23 02:01:08;;;;;;;6.75;2.88;;;;;;;11.76;100.00;95207.22;1029351;28;20023;-77
2023/04/23 02:01:42;;;;;;;4.28;2.95;;;;;;;11.73;100.00;95205.16;1026925;28;20054;-77
2023/04/23 02:02:14;;;;;;;3.53;2.42;;;;;;;11.79;100.00;95215.34;1022889;29;20066;-76
2023/04/23 02:02:44;;;;;;;7.95;3.05;;;;;;;11.82;100.00;95218.47;1022542;28;20662;-75
2023/04/23 02:03:15;;;;;;;6.88;2.90;;;;;;;11.73;100.00;95205.16;1023061;29;20302;-77
2023/04/23 02:03:45;;;;;;;3.80;2.85;;;;;;;11.73;100.00;95202.53;1027066;28;20049;-77
2023/04/23 02:04:16;;;;;;;4.32;2.60;;;;;;;11.71;100.00;95205.47;1026751;28;20564;-76
2023/04/23 02:04:47;;;;;;;2.92;2.63;;;;;;;11.79;100.00;95219.81;1030824;28;20026;-77
2023/04/23 02:05:18;;;;;;;5.75;2.85;;;;;;;11.73;100.00;95213.06;1030919;28;20030;-75
2023/04/23 02:05:48;;;;;;;6.18;2.95;;;;;;;11.69;100.00;95209.44;1034902;28;20271;-76
2023/04/23 02:06:19;;;;;;;3.88;2.97;;;;;;;11.68;100.00;95207.88;1026663;28;20015;-78
2023/04/23 02:06:49;;;;;;;3.60;2.83;;;;;;;11.64;100.00;95201.63;1022734;29;20027;-76
2023/04/23 02:07:20;;;;;;;5.10;3.03;;;;;;;11.67;100.00;95208.91;1022917;29;20059;-77
2023/04/23 02:07:51;;;;;;;3.75;2.92;;;;;;;11.73;100.00;95221.72;1026822;28;20022;-77
2023/04/23 02:08:21;;;;;;;3.53;2.90;;;;;;;11.76;100.00;95226.41;1023021;28;20084;-76
2023/04/23 02:08:52;;;;;;;6.18;2.60;;;;;;;11.75;100.00;95218.81;1027118;28;20023;-77
2023/04/23 02:09:22;;;;;;;5.50;2.45;;;;;;;11.69;100.00;95218.09;1030868;28;20041;-78
2023/04/23 02:09:53;;;;;;;3.47;2.97;;;;;;;11.77;100.00;95224.59;1026981;28;20027;-78
2023/04/23 02:10:24;;;;;;;3.70;2.70;;;;;;;11.75;100.00;95226.72;1035018;28;20030;-77
2023/04/23 02:10:55;;;;;;;7.25;3.05;;;;;;;11.66;100.00;95205.50;1026970;28;20031;-77
2023/04/23 02:11:25;;;;;;;13.63;3.60;;;;;;;11.77;100.00;95222.75;1022727;28;20267;-75
2023/04/23 02:11:56;;;;;;;3.40;2.83;;;;;;;11.76;100.00;95228.25;1026871;28;20066;-78
2023/04/23 02:12:27;;;;;;;8.43;3.20;;;;;;;11.76;100.00;95223.78;1027548;28;20483;-77
2023/04/23 02:12:57;;;;;;;4.78;3.20;;;;;;;11.66;100.00;95204.72;1031079;28;20319;-76
2023/04/23 02:13:28;;;;;;;4.65;2.70;;;;;;;11.75;100.00;95222.22;1038866;28;20099;-76
2023/04/23 02:13:59;;;;;;;3.40;2.53;;;;;;;11.78;100.00;95229.56;1034819;28;20401;-76
2023/04/23 02:14:30;;;;;;;6.95;3.38;;;;;;;11.80;100.00;95224.00;1030707;28;20022;-77
2023/04/23 02:15:00;;;;;;;3.90;3.08;;;;;;;11.80;100.00;95224.00;1031115;28;20567;-76
2023/04/23 02:15:31;;;;;;;3.75;2.88;;;;;;;11.82;100.00;95221.88;1026976;28;20070;-78
2023/04/23 02:16:01;;;;;;;4.13;2.92;;;;;;;11.77;100.00;95208.81;1031020;28;20050;-76
2023/04/23 02:16:33;;;;;;;3.47;3.00;;;;;;;11.83;100.00;95212.91;1034142;28;20111;-77
2023/04/23 02:17:03;;;;;;;3.60;2.65;;;;;;;11.86;100.00;95217.66;1026775;28;20123;-76
2023/04/23 02:17:34;;;;;;;3.63;2.83;;;;;;;11.78;100.00;95199.84;1026987;28;20844;-79
2023/04/23 02:18:05;;;;;;;3.78;2.70;;;;;;;11.86;100.00;95216.88;1024635;28;20034;-77
2023/04/23 02:18:35;;;;;;;5.40;2.85;;;;;;;11.87;100.00;95221.84;1023064;28;20031;-77
2023/04/23 02:19:06;;;;;;;4.38;2.88;;;;;;;11.81;100.00;95209.81;1022848;28;20651;-78
2023/04/23 02:19:36;;;;;;;3.85;2.90;;;;;;;11.85;100.00;95216.09;1026520;28;20045;-76
2023/04/23 02:20:08;;;;;;;4.38;3.20;;;;;;;11.72;100.00;95193.09;1026799;28;20043;-76
2023/04/23 02:24:40;;;;;;;3.58;2.92;;;;;;;11.81;100.00;95204.56;1059492;23;20737;-70
2023/04/23 02:25:14;;;;;;;4.32;2.80;;;;;;;11.84;100.00;95209.28;1042770;28;20040;-71
2023/04/23 02:25:44;;;;;;;4.35;2.80;;;;;;;11.89;100.00;95217.09;1034862;28;20029;-71
2023/04/23 02:26:15;;;;;;;3.53;2.75;;;;;;;11.90;100.00;95213.38;1034937;28;20269;-71
2023/04/23 02:26:46;;;;;;;3.78;2.65;;;;;;;11.88;100.00;95212.91;1031370;28;20027;-70
2023/04/23 02:27:16;;;;;;;4.85;2.83;;;;;;;11.88;100.00;95215.53;1032052;28;20014;-71